sensor_id;sensor_type;location;lat;lon;timestamp;pressure;altitude;pressure_sealevel;temperature
45850;BMP180;10739;52.198;20.908;2023-04-25T00:01:24;99100.00;;;15.90
45850;BMP180;10739;52.198;20.908;2023-04-25T00:03:51;99096.00;;;16.00
45850;BMP180;10739;52.198;20.908;2023-04-25T00:06:17;99103.00;;;16.00
45850;BMP180;10739;52.198;20.908;2023-04-25T00:08:48;99091.00;;;15.90
45850;BMP180;10739;52.198;20.908;2023-04-25T00:11:14;99095.00;;;15.60
45850;BMP180;10739;52.198;20.908;2023-04-25T00:13:40;99100.00;;;15.80
45850;BMP180;10739;52.198;20.908;2023-04-25T00:16:07;99091.00;;;15.80
45850;BMP180;10739;52.198;20.908;2023-04-25T00:18:34;99093.00;;;15.20
45850;BMP180;10739;52.198;20.908;2023-04-25T00:21:00;99090.00;;;15.50
45850;BMP180;10739;52.198;20.908;2023-04-25T00:23:27;99094.00;;;15.80
45850;BMP180;10739;52.198;20.908;2023-04-25T00:25:53;99096.00;;;15.80
45850;BMP180;10739;52.198;20.908;2023-04-25T00:28:20;99095.00;;;15.90
45850;BMP180;10739;52.198;20.908;2023-04-25T00:30:46;99086.00;;;15.60
45850;BMP180;10739;52.198;20.908;2023-04-25T00:33:12;99096.00;;;15.80
45850;BMP180;10739;52.198;20.908;2023-04-25T00:35:39;99094.00;;;15.60
45850;BMP180;10739;52.198;20.908;2023-04-25T00:38:05;99092.00;;;15.90
45850;BMP180;10739;52.198;20.908;2023-04-25T00:40:32;99087.00;;;15.40
45850;BMP180;10739;52.198;20.908;2023-04-25T00:42:58;99088.00;;;15.40
45850;BMP180;10739;52.198;20.908;2023-04-25T00:45:28;99090.00;;;15.40
45850;BMP180;10739;52.198;20.908;2023-04-25T00:47:56;99104.00;;;15.40
45850;BMP180;10739;52.198;20.908;2023-04-25T00:50:24;99092.00;;;15.60
45850;BMP180;10739;52.198;20.908;2023-04-25T00:52:51;99100.00;;;15.40
45850;BMP180;10739;52.198;20.908;2023-04-25T00:55:17;99094.00;;;14.90
45850;BMP180;10739;52.198;20.908;2023-04-25T00:57:44;99092.00;;;14.90
45850;BMP180;10739;52.198;20.908;2023-04-25T01:00:12;99096.00;;;15.40
45850;BMP180;10739;52.198;20.908;2023-04-25T01:02:41;99097.00;;;14.60
45850;BMP180;10739;52.198;20.908;2023-04-25T01:05:08;99097.00;;;14.90
45850;BMP180;10739;52.198;20.908;2023-04-25T01:07:35;99101.00;;;15.40
45850;BMP180;10739;52.198;20.908;2023-04-25T01:10:01;99096.00;;;15.10
45850;BMP180;10739;52.198;20.908;2023-04-25T01:12:28;99100.00;;;15.40
45850;BMP180;10739;52.198;20.908;2023-04-25T01:14:55;99098.00;;;15.10
45850;BMP180;10739;52.198;20.908;2023-04-25T01:17:21;99103.00;;;15.30
45850;BMP180;10739;52.198;20.908;2023-04-25T01:19:47;99097.00;;;15.20
45850;BMP180;10739;52.198;20.908;2023-04-25T01:22:15;99094.00;;;14.90
45850;BMP180;10739;52.198;20.908;2023-04-25T01:24:41;99095.00;;;15.10
45850;BMP180;10739;52.198;20.908;2023-04-25T01:27:09;99101.00;;;15.10
45850;BMP180;10739;52.198;20.908;2023-04-25T01:29:36;99093.00;;;14.90
45850;BMP180;10739;52.198;20.908;2023-04-25T01:32:03;99083.00;;;14.90
45850;BMP180;10739;52.198;20.908;2023-04-25T01:34:31;99094.00;;;15.00
45850;BMP180;10739;52.198;20.908;2023-04-25T01:36:59;99087.00;;;14.70
45850;BMP180;10739;52.198;20.908;2023-04-25T01:39:28;99084.00;;;14.70
45850;BMP180;10739;52.198;20.908;2023-04-25T01:41:54;99086.00;;;14.40
45850;BMP180;10739;52.198;20.908;2023-04-25T01:44:21;99087.00;;;14.20
45850;BMP180;10739;52.198;20.908;2023-04-25T01:46:47;99085.00;;;14.30
45850;BMP180;10739;52.198;20.908;2023-04-25T01:49:14;99081.00;;;14.20
45850;BMP180;10739;52.198;20.908;2023-04-25T01:51:41;99089.00;;;14.40
45850;BMP180;10739;52.198;20.908;2023-04-25T01:54:10;99079.00;;;14.10
45850;BMP180;10739;52.198;20.908;2023-04-25T01:56:38;99084.00;;;14.10
45850;BMP180;10739;52.198;20.908;2023-04-25T01:59:06;99087.00;;;14.20
45850;BMP180;10739;52.198;20.908;2023-04-25T02:01:32;99083.00;;;14.10
45850;BMP180;10739;52.198;20.908;2023-04-25T02:03:59;99089.00;;;13.90
45850;BMP180;10739;52.198;20.908;2023-04-25T02:06:25;99089.00;;;14.00
45850;BMP180;10739;52.198;20.908;2023-04-25T02:08:51;99091.00;;;14.00
45850;BMP180;10739;52.198;20.908;2023-04-25T02:11:18;99083.00;;;14.10
45850;BMP180;10739;52.198;20.908;2023-04-25T02:13:44;99079.00;;;14.00
45850;BMP180;10739;52.198;20.908;2023-04-25T02:16:10;99079.00;;;13.70
45850;BMP180;10739;52.198;20.908;2023-04-25T02:18:36;99072.00;;;14.10
45850;BMP180;10739;52.198;20.908;2023-04-25T02:21:03;99078.00;;;13.70
45850;BMP180;10739;52.198;20.908;2023-04-25T02:23:29;99065.00;;;13.70
45850;BMP180;10739;52.198;20.908;2023-04-25T02:25:56;99071.00;;;13.60
45850;BMP180;10739;52.198;20.908;2023-04-25T02:28:24;99069.00;;;13.90
45850;BMP180;10739;52.198;20.908;2023-04-25T02:30:52;99064.00;;;13.60
45850;BMP180;10739;52.198;20.908;2023-04-25T02:33:18;99063.00;;;13.70
45850;BMP180;10739;52.198;20.908;2023-04-25T02:35:47;99068.00;;;13.40
45850;BMP180;10739;52.198;20.908;2023-04-25T02:38:13;99063.00;;;13.60
45850;BMP180;10739;52.198;20.908;2023-04-25T02:40:39;99063.00;;;13.60
45850;BMP180;10739;52.198;20.908;2023-04-25T02:43:06;99069.00;;;13.90
45850;BMP180;10739;52.198;20.908;2023-04-25T02:45:33;99070.00;;;13.90
45850;BMP180;10739;52.198;20.908;2023-04-25T02:47:59;99080.00;;;13.70
45850;BMP180;10739;52.198;20.908;2023-04-25T02:50:25;99070.00;;;13.80
45850;BMP180;10739;52.198;20.908;2023-04-25T02:52:52;99062.00;;;13.60
45850;BMP180;10739;52.198;20.908;2023-04-25T02:55:18;99076.00;;;13.80
45850;BMP180;10739;52.198;20.908;2023-04-25T02:57:44;99071.00;;;13.80
45850;BMP180;10739;52.198;20.908;2023-04-25T03:00:11;99068.00;;;14.10
45850;BMP180;10739;52.198;20.908;2023-04-25T03:02:40;99063.00;;;13.90
45850;BMP180;10739;52.198;20.908;2023-04-25T03:05:06;99059.00;;;14.00
45850;BMP180;10739;52.198;20.908;2023-04-25T03:07:33;99061.00;;;13.60
45850;BMP180;10739;52.198;20.908;2023-04-25T03:09:59;99067.00;;;13.40
45850;BMP180;10739;52.198;20.908;2023-04-25T03:12:26;99066.00;;;13.70
45850;BMP180;10739;52.198;20.908;2023-04-25T03:14:52;99068.00;;;13.80
45850;BMP180;10739;52.198;20.908;2023-04-25T03:17:18;99063.00;;;13.90
45850;BMP180;10739;52.198;20.908;2023-04-25T03:19:45;99069.00;;;13.80
45850;BMP180;10739;52.198;20.908;2023-04-25T03:22:11;99068.00;;;14.10
45850;BMP180;10739;52.198;20.908;2023-04-25T03:24:37;99070.00;;;14.30
45850;BMP180;10739;52.198;20.908;2023-04-25T03:27:03;99068.00;;;14.20
45850;BMP180;10739;52.198;20.908;2023-04-25T03:29:30;99071.00;;;14.50
45850;BMP180;10739;52.198;20.908;2023-04-25T03:31:56;99071.00;;;14.70
45850;BMP180;10739;52.198;20.908;2023-04-25T03:34:22;99075.00;;;14.40
45850;BMP180;10739;52.198;20.908;2023-04-25T03:36:49;99072.00;;;14.80
45850;BMP180;10739;52.198;20.908;2023-04-25T03:39:16;99076.00;;;14.10
45850;BMP180;10739;52.198;20.908;2023-04-25T03:41:42;99077.00;;;14.30
45850;BMP180;10739;52.198;20.908;2023-04-25T03:44:08;99076.00;;;14.20
45850;BMP180;10739;52.198;20.908;2023-04-25T03:46:35;99095.00;;;14.50
45850;BMP180;10739;52.198;20.908;2023-04-25T03:49:01;99083.00;;;14.50
45850;BMP180;10739;52.198;20.908;2023-04-25T03:51:27;99094.00;;;13.80
45850;BMP180;10739;52.198;20.908;2023-04-25T03:53:54;99087.00;;;13.50
45850;BMP180;10739;52.198;20.908;2023-04-25T03:56:20;99096.00;;;13.80
45850;BMP180;10739;52.198;20.908;2023-04-25T03:58:46;99087.00;;;14.10
45850;BMP180;10739;52.198;20.908;2023-04-25T04:01:13;99086.00;;;13.60
45850;BMP180;10739;52.198;20.908;2023-04-25T04:03:39;99098.00;;;14.10
45850;BMP180;10739;52.198;20.908;2023-04-25T04:06:06;99092.00;;;14.00
45850;BMP180;10739;52.198;20.908;2023-04-25T04:08:33;99100.00;;;13.70
45850;BMP180;10739;52.198;20.908;2023-04-25T04:11:00;99101.00;;;13.90
45850;BMP180;10739;52.198;20.908;2023-04-25T04:13:28;99093.00;;;14.10
45850;BMP180;10739;52.198;20.908;2023-04-25T04:15:55;99107.00;;;13.90
45850;BMP180;10739;52.198;20.908;2023-04-25T04:18:22;99099.00;;;13.70
45850;BMP180;10739;52.198;20.908;2023-04-25T04:20:48;99109.00;;;13.50
45850;BMP180;10739;52.198;20.908;2023-04-25T04:23:14;99104.00;;;13.70
45850;BMP180;10739;52.198;20.908;2023-04-25T04:25:41;99112.00;;;13.80
45850;BMP180;10739;52.198;20.908;2023-04-25T04:28:07;99098.00;;;13.80
45850;BMP180;10739;52.198;20.908;2023-04-25T04:30:34;99105.00;;;13.90
45850;BMP180;10739;52.198;20.908;2023-04-25T04:33:02;99106.00;;;13.40
45850;BMP180;10739;52.198;20.908;2023-04-25T04:35:29;99115.00;;;13.30
45850;BMP180;10739;52.198;20.908;2023-04-25T04:37:55;99111.00;;;13.30
45850;BMP180;10739;52.198;20.908;2023-04-25T04:40:22;99114.00;;;13.40
45850;BMP180;10739;52.198;20.908;2023-04-25T04:42:48;99112.00;;;13.60
45850;BMP180;10739;52.198;20.908;2023-04-25T04:45:15;99118.00;;;13.90
45850;BMP180;10739;52.198;20.908;2023-04-25T04:47:42;99115.00;;;13.20
45850;BMP180;10739;52.198;20.908;2023-04-25T04:50:10;99118.00;;;13.50
45850;BMP180;10739;52.198;20.908;2023-04-25T04:52:38;99119.00;;;13.90
45850;BMP180;10739;52.198;20.908;2023-04-25T04:55:05;99111.00;;;13.60
45850;BMP180;10739;52.198;20.908;2023-04-25T04:57:32;99113.00;;;13.60
45850;BMP180;10739;52.198;20.908;2023-04-25T04:59:59;99114.00;;;13.10
45850;BMP180;10739;52.198;20.908;2023-04-25T05:02:26;99114.00;;;13.20
45850;BMP180;10739;52.198;20.908;2023-04-25T05:04:53;99101.00;;;13.20
45850;BMP180;10739;52.198;20.908;2023-04-25T05:07:19;99106.00;;;13.40
45850;BMP180;10739;52.198;20.908;2023-04-25T05:09:45;99110.00;;;12.90
45850;BMP180;10739;52.198;20.908;2023-04-25T05:12:12;99113.00;;;13.00
45850;BMP180;10739;52.198;20.908;2023-04-25T05:14:38;99107.00;;;13.00
45850;BMP180;10739;52.198;20.908;2023-04-25T05:17:04;99114.00;;;13.60
45850;BMP180;10739;52.198;20.908;2023-04-25T05:19:34;99114.00;;;13.60
45850;BMP180;10739;52.198;20.908;2023-04-25T05:22:01;99127.00;;;13.00
45850;BMP180;10739;52.198;20.908;2023-04-25T05:24:28;99135.00;;;12.80
45850;BMP180;10739;52.198;20.908;2023-04-25T05:26:54;99125.00;;;12.70
45850;BMP180;10739;52.198;20.908;2023-04-25T05:29:20;99129.00;;;12.80
45850;BMP180;10739;52.198;20.908;2023-04-25T05:31:46;99120.00;;;13.30
45850;BMP180;10739;52.198;20.908;2023-04-25T05:34:14;99112.00;;;13.70
45850;BMP180;10739;52.198;20.908;2023-04-25T05:36:41;99120.00;;;14.00
45850;BMP180;10739;52.198;20.908;2023-04-25T05:39:07;99120.00;;;13.70
45850;BMP180;10739;52.198;20.908;2023-04-25T05:41:34;99119.00;;;13.90
45850;BMP180;10739;52.198;20.908;2023-04-25T05:44:01;99118.00;;;13.50
45850;BMP180;10739;52.198;20.908;2023-04-25T05:46:27;99123.00;;;13.90
45850;BMP180;10739;52.198;20.908;2023-04-25T05:48:53;99124.00;;;13.60
45850;BMP180;10739;52.198;20.908;2023-04-25T05:51:20;99122.00;;;13.90
45850;BMP180;10739;52.198;20.908;2023-04-25T05:53:46;99132.00;;;13.80
45850;BMP180;10739;52.198;20.908;2023-04-25T05:56:13;99135.00;;;13.90
45850;BMP180;10739;52.198;20.908;2023-04-25T05:58:39;99133.00;;;14.00
45850;BMP180;10739;52.198;20.908;2023-04-25T06:01:06;99130.00;;;13.40
45850;BMP180;10739;52.198;20.908;2023-04-25T06:03:32;99136.00;;;13.20
45850;BMP180;10739;52.198;20.908;2023-04-25T06:05:59;99131.00;;;13.80
45850;BMP180;10739;52.198;20.908;2023-04-25T06:08:25;99141.00;;;13.50
45850;BMP180;10739;52.198;20.908;2023-04-25T06:10:52;99141.00;;;13.30
45850;BMP180;10739;52.198;20.908;2023-04-25T06:13:18;99140.00;;;13.00
45850;BMP180;10739;52.198;20.908;2023-04-25T06:15:44;99155.00;;;13.30
45850;BMP180;10739;52.198;20.908;2023-04-25T06:18:10;99159.00;;;12.80
45850;BMP180;10739;52.198;20.908;2023-04-25T06:20:37;99158.00;;;13.20
45850;BMP180;10739;52.198;20.908;2023-04-25T06:23:03;99181.00;;;13.00
45850;BMP180;10739;52.198;20.908;2023-04-25T06:25:29;99188.00;;;13.60
45850;BMP180;10739;52.198;20.908;2023-04-25T06:27:56;99199.00;;;13.20
45850;BMP180;10739;52.198;20.908;2023-04-25T06:30:22;99205.00;;;12.80
45850;BMP180;10739;52.198;20.908;2023-04-25T06:32:52;99201.00;;;12.40
45850;BMP180;10739;52.198;20.908;2023-04-25T06:35:19;99200.00;;;12.40
45850;BMP180;10739;52.198;20.908;2023-04-25T06:37:46;99194.00;;;12.40
45850;BMP180;10739;52.198;20.908;2023-04-25T06:40:13;99185.00;;;12.40
45850;BMP180;10739;52.198;20.908;2023-04-25T06:42:39;99175.00;;;12.70
45850;BMP180;10739;52.198;20.908;2023-04-25T06:45:06;99176.00;;;12.30
45850;BMP180;10739;52.198;20.908;2023-04-25T06:47:32;99174.00;;;12.50
45850;BMP180;10739;52.198;20.908;2023-04-25T06:49:58;99187.00;;;12.40
45850;BMP180;10739;52.198;20.908;2023-04-25T06:52:25;99177.00;;;12.50
45850;BMP180;10739;52.198;20.908;2023-04-25T06:54:51;99172.00;;;12.20
45850;BMP180;10739;52.198;20.908;2023-04-25T06:57:17;99173.00;;;12.10
45850;BMP180;10739;52.198;20.908;2023-04-25T06:59:44;99162.00;;;12.00
45850;BMP180;10739;52.198;20.908;2023-04-25T07:02:10;99168.00;;;12.00
45850;BMP180;10739;52.198;20.908;2023-04-25T07:04:37;99168.00;;;12.00
45850;BMP180;10739;52.198;20.908;2023-04-25T07:07:03;99170.00;;;12.10
45850;BMP180;10739;52.198;20.908;2023-04-25T07:09:30;99160.00;;;12.60
45850;BMP180;10739;52.198;20.908;2023-04-25T07:12:00;99169.00;;;12.50
45850;BMP180;10739;52.198;20.908;2023-04-25T07:14:28;99170.00;;;12.00
45850;BMP180;10739;52.198;20.908;2023-04-25T07:16:54;99172.00;;;11.90
45850;BMP180;10739;52.198;20.908;2023-04-25T07:19:22;99167.00;;;12.10
45850;BMP180;10739;52.198;20.908;2023-04-25T07:21:52;99176.00;;;12.20
45850;BMP180;10739;52.198;20.908;2023-04-25T07:24:19;99177.00;;;12.20
45850;BMP180;10739;52.198;20.908;2023-04-25T07:26:45;99169.00;;;12.00
45850;BMP180;10739;52.198;20.908;2023-04-25T07:29:12;99167.00;;;12.30
45850;BMP180;10739;52.198;20.908;2023-04-25T07:31:39;99176.00;;;12.00
45850;BMP180;10739;52.198;20.908;2023-04-25T07:34:05;99171.00;;;12.60
45850;BMP180;10739;52.198;20.908;2023-04-25T07:36:32;99175.00;;;12.50
45850;BMP180;10739;52.198;20.908;2023-04-25T07:38:58;99177.00;;;12.70
45850;BMP180;10739;52.198;20.908;2023-04-25T07:41:25;99188.00;;;13.00
45850;BMP180;10739;52.198;20.908;2023-04-25T07:43:51;99179.00;;;12.60
45850;BMP180;10739;52.198;20.908;2023-04-25T07:46:17;99191.00;;;12.40
45850;BMP180;10739;52.198;20.908;2023-04-25T07:48:44;99183.00;;;12.30
45850;BMP180;10739;52.198;20.908;2023-04-25T07:51:11;99182.00;;;12.30
45850;BMP180;10739;52.198;20.908;2023-04-25T07:53:37;99185.00;;;12.70
45850;BMP180;10739;52.198;20.908;2023-04-25T07:56:04;99177.00;;;12.70
45850;BMP180;10739;52.198;20.908;2023-04-25T07:58:30;99190.00;;;13.20
45850;BMP180;10739;52.198;20.908;2023-04-25T08:00:56;99187.00;;;13.20
45850;BMP180;10739;52.198;20.908;2023-04-25T08:03:23;99180.00;;;12.50
45850;BMP180;10739;52.198;20.908;2023-04-25T08:05:49;99191.00;;;12.40
45850;BMP180;10739;52.198;20.908;2023-04-25T08:08:15;99182.00;;;12.20
45850;BMP180;10739;52.198;20.908;2023-04-25T08:10:42;99189.00;;;11.80
45850;BMP180;10739;52.198;20.908;2023-04-25T08:13:08;99185.00;;;11.60
45850;BMP180;10739;52.198;20.908;2023-04-25T08:15:34;99189.00;;;12.20
45850;BMP180;10739;52.198;20.908;2023-04-25T08:18:01;99188.00;;;11.90
45850;BMP180;10739;52.198;20.908;2023-04-25T08:20:27;99189.00;;;11.90
45850;BMP180;10739;52.198;20.908;2023-04-25T08:22:54;99196.00;;;12.20
45850;BMP180;10739;52.198;20.908;2023-04-25T08:25:20;99206.00;;;12.50
45850;BMP180;10739;52.198;20.908;2023-04-25T08:27:46;99209.00;;;11.90
45850;BMP180;10739;52.198;20.908;2023-04-25T08:30:13;99199.00;;;11.90
45850;BMP180;10739;52.198;20.908;2023-04-25T08:32:40;99208.00;;;11.70
45850;BMP180;10739;52.198;20.908;2023-04-25T08:35:06;99215.00;;;11.80
45850;BMP180;10739;52.198;20.908;2023-04-25T08:37:32;99209.00;;;12.00
45850;BMP180;10739;52.198;20.908;2023-04-25T08:39:59;99219.00;;;13.00
45850;BMP180;10739;52.198;20.908;2023-04-25T08:42:27;99218.00;;;12.60
45850;BMP180;10739;52.198;20.908;2023-04-25T08:44:56;99216.00;;;13.10
45850;BMP180;10739;52.198;20.908;2023-04-25T08:47:25;99226.00;;;13.10
45850;BMP180;10739;52.198;20.908;2023-04-25T08:49:54;99231.00;;;12.50
45850;BMP180;10739;52.198;20.908;2023-04-25T08:52:28;99234.00;;;13.00
45850;BMP180;10739;52.198;20.908;2023-04-25T08:54:57;99239.00;;;12.00
45850;BMP180;10739;52.198;20.908;2023-04-25T08:57:24;99241.00;;;12.10
45850;BMP180;10739;52.198;20.908;2023-04-25T08:59:52;99238.00;;;12.90
45850;BMP180;10739;52.198;20.908;2023-04-25T09:02:20;99241.00;;;12.80
45850;BMP180;10739;52.198;20.908;2023-04-25T09:04:47;99246.00;;;13.00
45850;BMP180;10739;52.198;20.908;2023-04-25T09:07:14;99243.00;;;13.00
45850;BMP180;10739;52.198;20.908;2023-04-25T09:09:44;99250.00;;;13.20
45850;BMP180;10739;52.198;20.908;2023-04-25T09:12:10;99243.00;;;13.50
45850;BMP180;10739;52.198;20.908;2023-04-25T09:14:36;99248.00;;;12.40
45850;BMP180;10739;52.198;20.908;2023-04-25T09:17:04;99246.00;;;11.90
45850;BMP180;10739;52.198;20.908;2023-04-25T09:19:36;99248.00;;;12.10
45850;BMP180;10739;52.198;20.908;2023-04-25T09:22:05;99247.00;;;12.60
45850;BMP180;10739;52.198;20.908;2023-04-25T09:24:38;99249.00;;;12.30
45850;BMP180;10739;52.198;20.908;2023-04-25T09:27:06;99251.00;;;12.00
45850;BMP180;10739;52.198;20.908;2023-04-25T09:29:37;99257.00;;;11.90
45850;BMP180;10739;52.198;20.908;2023-04-25T09:32:23;99258.00;;;12.00
45850;BMP180;10739;52.198;20.908;2023-04-25T09:34:52;99262.00;;;12.00
45850;BMP180;10739;52.198;20.908;2023-04-25T09:37:30;99272.00;;;12.50
45850;BMP180;10739;52.198;20.908;2023-04-25T09:39:59;99275.00;;;12.50
45850;BMP180;10739;52.198;20.908;2023-04-25T09:42:28;99274.00;;;12.10
45850;BMP180;10739;52.198;20.908;2023-04-25T09:44:58;99269.00;;;12.40
45850;BMP180;10739;52.198;20.908;2023-04-25T09:47:26;99274.00;;;12.30
45850;BMP180;10739;52.198;20.908;2023-04-25T09:49:54;99275.00;;;12.30
45850;BMP180;10739;52.198;20.908;2023-04-25T09:52:23;99276.00;;;12.00
45850;BMP180;10739;52.198;20.908;2023-04-25T09:54:52;99286.00;;;12.20
45850;BMP180;10739;52.198;20.908;2023-04-25T09:57:22;99279.00;;;12.50
45850;BMP180;10739;52.198;20.908;2023-04-25T09:59:54;99288.00;;;12.90
45850;BMP180;10739;52.198;20.908;2023-04-25T10:02:26;99286.00;;;12.70
45850;BMP180;10739;52.198;20.908;2023-04-25T10:04:56;99290.00;;;12.50
45850;BMP180;10739;52.198;20.908;2023-04-25T10:07:30;99285.00;;;12.20
45850;BMP180;10739;52.198;20.908;2023-04-25T10:10:02;99289.00;;;12.20
45850;BMP180;10739;52.198;20.908;2023-04-25T10:12:31;99281.00;;;12.20
45850;BMP180;10739;52.198;20.908;2023-04-25T10:14:59;99286.00;;;12.20
45850;BMP180;10739;52.198;20.908;2023-04-25T10:17:27;99288.00;;;12.40
45850;BMP180;10739;52.198;20.908;2023-04-25T10:19:56;99279.00;;;12.50
45850;BMP180;10739;52.198;20.908;2023-04-25T10:22:46;99289.00;;;12.40
45850;BMP180;10739;52.198;20.908;2023-04-25T10:25:14;99288.00;;;12.20
45850;BMP180;10739;52.198;20.908;2023-04-25T10:27:41;99292.00;;;11.90
45850;BMP180;10739;52.198;20.908;2023-04-25T10:30:11;99291.00;;;12.60
45850;BMP180;10739;52.198;20.908;2023-04-25T10:32:42;99287.00;;;12.50
45850;BMP180;10739;52.198;20.908;2023-04-25T10:38:14;99280.00;;;12.30
45850;BMP180;10739;52.198;20.908;2023-04-25T10:40:40;99276.00;;;12.30
45850;BMP180;10739;52.198;20.908;2023-04-25T10:46:00;99282.00;;;12.20
45850;BMP180;10739;52.198;20.908;2023-04-25T10:48:28;99288.00;;;12.70
45850;BMP180;10739;52.198;20.908;2023-04-25T10:51:33;99290.00;;;13.00
45850;BMP180;10739;52.198;20.908;2023-04-25T10:54:04;99282.00;;;13.40
45850;BMP180;10739;52.198;20.908;2023-04-25T10:56:36;99286.00;;;13.30
45850;BMP180;10739;52.198;20.908;2023-04-25T10:59:10;99285.00;;;13.30
45850;BMP180;10739;52.198;20.908;2023-04-25T11:01:51;99279.00;;;13.10
45850;BMP180;10739;52.198;20.908;2023-04-25T11:04:28;99281.00;;;13.00
45850;BMP180;10739;52.198;20.908;2023-04-25T11:07:43;99291.00;;;13.40
45850;BMP180;10739;52.198;20.908;2023-04-25T11:10:06;99289.00;;;13.80
45850;BMP180;10739;52.198;20.908;2023-04-25T11:12:32;99289.00;;;13.70
45850;BMP180;10739;52.198;20.908;2023-04-25T11:15:05;99280.00;;;13.70
45850;BMP180;10739;52.198;20.908;2023-04-25T11:17:33;99284.00;;;14.00
45850;BMP180;10739;52.198;20.908;2023-04-25T11:20:00;99286.00;;;14.20
45850;BMP180;10739;52.198;20.908;2023-04-25T11:22:27;99292.00;;;13.70
45850;BMP180;10739;52.198;20.908;2023-04-25T11:24:54;99284.00;;;14.10
45850;BMP180;10739;52.198;20.908;2023-04-25T11:27:21;99287.00;;;14.50
45850;BMP180;10739;52.198;20.908;2023-04-25T11:29:47;99284.00;;;14.30
45850;BMP180;10739;52.198;20.908;2023-04-25T11:32:17;99289.00;;;14.20
45850;BMP180;10739;52.198;20.908;2023-04-25T11:34:44;99284.00;;;14.30
45850;BMP180;10739;52.198;20.908;2023-04-25T11:37:11;99280.00;;;14.30
45850;BMP180;10739;52.198;20.908;2023-04-25T11:39:39;99290.00;;;14.50
45850;BMP180;10739;52.198;20.908;2023-04-25T11:42:09;99281.00;;;14.90
45850;BMP180;10739;52.198;20.908;2023-04-25T11:44:35;99288.00;;;15.20
45850;BMP180;10739;52.198;20.908;2023-04-25T11:47:03;99288.00;;;14.70
45850;BMP180;10739;52.198;20.908;2023-04-25T11:49:33;99290.00;;;14.90
45850;BMP180;10739;52.198;20.908;2023-04-25T11:51:59;99290.00;;;14.50
45850;BMP180;10739;52.198;20.908;2023-04-25T11:54:26;99286.00;;;14.30
45850;BMP180;10739;52.198;20.908;2023-04-25T11:56:52;99289.00;;;14.40
45850;BMP180;10739;52.198;20.908;2023-04-25T11:59:24;99279.00;;;14.00
45850;BMP180;10739;52.198;20.908;2023-04-25T12:01:51;99287.00;;;13.40
45850;BMP180;10739;52.198;20.908;2023-04-25T12:04:22;99290.00;;;13.60
45850;BMP180;10739;52.198;20.908;2023-04-25T12:06:51;99285.00;;;13.70
45850;BMP180;10739;52.198;20.908;2023-04-25T12:09:32;99289.00;;;14.00
45850;BMP180;10739;52.198;20.908;2023-04-25T12:12:00;99285.00;;;13.90
45850;BMP180;10739;52.198;20.908;2023-04-25T12:14:35;99282.00;;;14.20
45850;BMP180;10739;52.198;20.908;2023-04-25T12:17:04;99285.00;;;14.00
45850;BMP180;10739;52.198;20.908;2023-04-25T12:19:36;99289.00;;;13.80
45850;BMP180;10739;52.198;20.908;2023-04-25T12:22:19;99289.00;;;14.20
45850;BMP180;10739;52.198;20.908;2023-04-25T12:24:45;99278.00;;;14.10
45850;BMP180;10739;52.198;20.908;2023-04-25T12:27:16;99285.00;;;14.60
45850;BMP180;10739;52.198;20.908;2023-04-25T12:29:55;99279.00;;;14.30
45850;BMP180;10739;52.198;20.908;2023-04-25T12:32:22;99289.00;;;13.90
45850;BMP180;10739;52.198;20.908;2023-04-25T12:34:48;99284.00;;;13.70
45850;BMP180;10739;52.198;20.908;2023-04-25T12:37:15;99289.00;;;14.10
45850;BMP180;10739;52.198;20.908;2023-04-25T12:39:41;99289.00;;;13.90
45850;BMP180;10739;52.198;20.908;2023-04-25T12:42:08;99288.00;;;14.10
45850;BMP180;10739;52.198;20.908;2023-04-25T12:44:38;99289.00;;;13.70
45850;BMP180;10739;52.198;20.908;2023-04-25T12:47:04;99289.00;;;13.90
45850;BMP180;10739;52.198;20.908;2023-04-25T12:49:32;99291.00;;;14.40
45850;BMP180;10739;52.198;20.908;2023-04-25T12:51:58;99287.00;;;14.00
45850;BMP180;10739;52.198;20.908;2023-04-25T12:54:24;99281.00;;;14.30
45850;BMP180;10739;52.198;20.908;2023-04-25T12:56:51;99282.00;;;14.40
45850;BMP180;10739;52.198;20.908;2023-04-25T12:59:18;99279.00;;;14.20
45850;BMP180;10739;52.198;20.908;2023-04-25T13:01:45;99281.00;;;14.70
45850;BMP180;10739;52.198;20.908;2023-04-25T13:04:12;99273.00;;;14.30
45850;BMP180;10739;52.198;20.908;2023-04-25T13:06:38;99275.00;;;14.40
45850;BMP180;10739;52.198;20.908;2023-04-25T13:09:04;99274.00;;;14.50
45850;BMP180;10739;52.198;20.908;2023-04-25T13:11:32;99268.00;;;15.00
45850;BMP180;10739;52.198;20.908;2023-04-25T13:13:58;99270.00;;;15.30
45850;BMP180;10739;52.198;20.908;2023-04-25T13:16:26;99272.00;;;15.00
45850;BMP180;10739;52.198;20.908;2023-04-25T13:18:52;99270.00;;;14.90
45850;BMP180;10739;52.198;20.908;2023-04-25T13:21:19;99273.00;;;14.40
45850;BMP180;10739;52.198;20.908;2023-04-25T13:23:45;99278.00;;;14.20
45850;BMP180;10739;52.198;20.908;2023-04-25T13:26:12;99274.00;;;14.10
45850;BMP180;10739;52.198;20.908;2023-04-25T13:28:38;99276.00;;;14.50
45850;BMP180;10739;52.198;20.908;2023-04-25T13:31:06;99269.00;;;14.20
45850;BMP180;10739;52.198;20.908;2023-04-25T13:33:32;99263.00;;;14.30
45850;BMP180;10739;52.198;20.908;2023-04-25T13:36:01;99267.00;;;14.50
45850;BMP180;10739;52.198;20.908;2023-04-25T13:38:27;99270.00;;;14.50
45850;BMP180;10739;52.198;20.908;2023-04-25T13:40:53;99259.00;;;14.70
45850;BMP180;10739;52.198;20.908;2023-04-25T13:43:22;99263.00;;;14.90
45850;BMP180;10739;52.198;20.908;2023-04-25T13:45:49;99264.00;;;14.40
45850;BMP180;10739;52.198;20.908;2023-04-25T13:48:17;99258.00;;;14.10
45850;BMP180;10739;52.198;20.908;2023-04-25T13:50:55;99261.00;;;14.40
45850;BMP180;10739;52.198;20.908;2023-04-25T13:53:22;99258.00;;;14.40
45850;BMP180;10739;52.198;20.908;2023-04-25T13:55:48;99254.00;;;14.80
45850;BMP180;10739;52.198;20.908;2023-04-25T13:58:14;99270.00;;;14.80
45850;BMP180;10739;52.198;20.908;2023-04-25T14:00:41;99263.00;;;14.60
45850;BMP180;10739;52.198;20.908;2023-04-25T14:03:09;99253.00;;;14.70
45850;BMP180;10739;52.198;20.908;2023-04-25T14:05:36;99263.00;;;14.70